Time;durP1;ratioP1;P1;durP2;ratioP2;P2;SDS_P1;SDS_P2;PMS_P1;PMS_P2;Temp;Humidity;BMP_temperature;BMP_pressure;BME280_temperature;BME280_humidity;BME280_pressure;Samples;Min_cycle;Max_cycle;Signal;HPM_P1;HPM_P2
2021/06/08 00:00:55;;;;;;;;;;;26.10;99.90;;;;;;1768123;80;20206;-85
2021/06/08 00:03:25;;;;;;;;;;;26.10;99.90;;;;;;1781791;80;20697;-85
2021/06/08 00:05:55;;;;;;;;;;;26.10;99.90;;;;;;1758237;81;20180;-85
2021/06/08 00:08:25;;;;;;;;;;;26.10;99.90;;;;;;1777720;80;20199;-85
2021/06/08 00:10:54;;;;;;;;;;;26.20;99.90;;;;;;1799329;78;20253;-85
2021/06/08 00:13:24;;;;;;;;;;;26.20;99.90;;;;;;1802853;78;20225;-85
2021/06/08 00:15:54;;;;;;;;;;;26.20;99.90;;;;;;1774093;80;20277;-85
2021/06/08 00:18:23;;;;;;;;;;;26.20;99.90;;;;;;1771939;80;20412;-86
2021/06/08 00:20:54;;;;;;;;;;;26.20;99.90;;;;;;1773037;81;20188;-85
2021/06/08 00:23:24;;;;;;;;;;;26.20;99.90;;;;;;1767429;81;20238;-85
2021/06/08 00:25:54;;;;;;;;;;;26.20;99.90;;;;;;1770835;81;20396;-85
2021/06/08 00:28:27;;;;;;;;;;;26.20;99.90;;;;;;1775795;79;20179;-85
2021/06/08 00:30:56;;;;;;;;;;;26.30;99.90;;;;;;1773552;79;20164;-86
2021/06/08 00:33:26;;;;;;;;;;;26.20;99.90;;;;;;1779265;79;20180;-86
2021/06/08 00:35:56;;;;;;;;;;;26.30;99.90;;;;;;1767757;79;20732;-85
2021/06/08 00:38:26;;;;;;;;;;;26.30;99.90;;;;;;1762991;81;20233;-84
2021/06/08 00:40:55;;;;;;;;;;;26.30;99.90;;;;;;1765024;79;20152;-85
2021/06/08 00:43:25;;;;;;;;;;;26.30;99.90;;;;;;1764493;81;20198;-85
2021/06/08 00:45:55;;;;;;;;;;;26.30;99.90;;;;;;1762219;81;20412;-85
2021/06/08 00:48:25;;;;;;;;;;;26.30;99.90;;;;;;1770125;79;20170;-86
2021/06/08 00:50:54;;;;;;;;;;;26.30;99.90;;;;;;1772916;79;20255;-85
2021/06/08 00:53:24;;;;;;;;;;;26.40;99.90;;;;;;1742378;81;20238;-86
2021/06/08 00:55:54;;;;;;;;;;;26.40;99.90;;;;;;1779851;79;20209;-86
2021/06/08 00:58:24;;;;;;;;;;;26.40;99.90;;;;;;1768892;79;20251;-86
2021/06/08 01:00:53;;;;;;;;;;;26.50;99.90;;;;;;1780552;79;20231;-85
2021/06/08 01:03:24;;;;;;;;;;;26.50;99.90;;;;;;1769781;79;20254;-86
2021/06/08 01:05:54;;;;;;;;;;;26.50;99.90;;;;;;1778024;79;20223;-85
2021/06/08 01:08:27;;;;;;;;;;;26.50;99.90;;;;;;1777725;79;20188;-86
2021/06/08 01:10:56;;;;;;;;;;;26.50;99.90;;;;;;1778324;79;20211;-86
2021/06/08 01:13:28;;;;;;;;;;;26.60;99.90;;;;;;1777600;79;20251;-86
2021/06/08 01:15:57;;;;;;;;;;;26.50;99.90;;;;;;1779707;79;20227;-86
2021/06/08 01:18:27;;;;;;;;;;;26.60;99.90;;;;;;1737799;81;20203;-86
2021/06/08 01:20:58;;;;;;;;;;;26.60;99.90;;;;;;1770754;80;20199;-87
2021/06/08 01:23:31;;;;;;;;;;;26.60;99.90;;;;;;1802493;78;20406;-85
2021/06/08 01:26:01;;;;;;;;;;;26.70;99.90;;;;;;1808111;78;20212;-84
2021/06/08 01:28:32;;;;;;;;;;;26.70;99.90;;;;;;1808079;78;20142;-86
2021/06/08 01:31:02;;;;;;;;;;;26.70;99.90;;;;;;1793192;79;20126;-87
2021/06/08 01:33:32;;;;;;;;;;;26.70;99.90;;;;;;1807334;78;20213;-86
2021/06/08 01:36:03;;;;;;;;;;;26.70;99.90;;;;;;1807921;79;20831;-86
2021/06/08 01:38:32;;;;;;;;;;;26.70;99.90;;;;;;1803642;78;20515;-86
2021/06/08 01:41:21;;;;;;;;;;;26.80;99.90;;;;;;1770882;80;20171;-86
2021/06/08 01:43:51;;;;;;;;;;;26.80;99.90;;;;;;1808596;79;20126;-85
2021/06/08 01:46:22;;;;;;;;;;;26.80;99.90;;;;;;1777589;79;20413;-84
2021/06/08 01:48:52;;;;;;;;;;;26.80;99.90;;;;;;1816121;78;20233;-85
2021/06/08 01:52:02;;;;;;;;;;;26.90;99.90;;;;;;1834848;78;20187;-85
2021/06/08 01:54:11;;;;;;;;;;;26.90;99.90;;;;;;1807762;77;20201;-84
2021/06/08 01:56:42;;;;;;;;;;;26.90;99.90;;;;;;1789673;79;20671;-80
2021/06/08 01:59:13;;;;;;;;;;;27.00;99.90;;;;;;1835866;77;20250;-82
2021/06/08 02:01:43;;;;;;;;;;;27.00;99.90;;;;;;1793364;79;20240;-83
2021/06/08 02:04:28;;;;;;;;;;;27.00;99.90;;;;;;1798208;79;20206;-81
2021/06/08 02:06:52;;;;;;;;;;;27.10;99.90;;;;;;1799734;79;20199;-80
2021/06/08 02:09:23;;;;;;;;;;;27.10;99.90;;;;;;1826180;78;20331;-82
2021/06/08 02:11:54;;;;;;;;;;;27.10;99.40;;;;;;1821286;78;20238;-82
2021/06/08 02:14:25;;;;;;;;;;;27.20;99.80;;;;;;1809927;79;20272;-82
2021/06/08 02:16:56;;;;;;;;;;;27.30;99.20;;;;;;1798941;79;20176;-81
2021/06/08 02:19:25;;;;;;;;;;;27.30;98.90;;;;;;1875555;75;20219;-83
2021/06/08 02:21:57;;;;;;;;;;;27.40;98.70;;;;;;1883070;75;20291;-81
2021/06/08 02:24:27;;;;;;;;;;;27.40;98.40;;;;;;1844106;77;20726;-83
2021/06/08 02:26:58;;;;;;;;;;;27.40;98.20;;;;;;1836776;77;20171;-83
2021/06/08 02:29:28;;;;;;;;;;;27.50;98.40;;;;;;1823964;77;20466;-83
2021/06/08 02:31:58;;;;;;;;;;;27.40;97.80;;;;;;1828187;77;20272;-83
2021/06/08 02:34:29;;;;;;;;;;;27.50;98.20;;;;;;1827538;77;20215;-81
2021/06/08 02:36:59;;;;;;;;;;;27.50;98.70;;;;;;1832883;77;20156;-77
2021/06/08 02:39:29;;;;;;;;;;;27.60;98.80;;;;;;1824347;78;20184;-79
2021/06/08 02:41:59;;;;;;;;;;;27.60;98.30;;;;;;1880663;75;20204;-79
2021/06/08 02:44:29;;;;;;;;;;;27.70;97.80;;;;;;1835718;77;20257;-79
2021/06/08 02:47:00;;;;;;;;;;;27.70;97.70;;;;;;1802577;79;20234;-79
2021/06/08 02:49:31;;;;;;;;;;;27.80;97.50;;;;;;1842348;77;20225;-78
2021/06/08 02:52:02;;;;;;;;;;;27.80;97.50;;;;;;1844916;77;20215;-78
2021/06/08 02:54:33;;;;;;;;;;;27.90;97.60;;;;;;1826018;75;20196;-78
2021/06/08 02:57:03;;;;;;;;;;;27.90;97.30;;;;;;1827595;77;20129;-77
2021/06/08 02:59:34;;;;;;;;;;;28.00;97.60;;;;;;1826858;77;20140;-79
2021/06/08 03:02:05;;;;;;;;;;;28.00;97.00;;;;;;1813889;77;20503;-77
2021/06/08 03:04:36;;;;;;;;;;;28.00;96.90;;;;;;1817080;77;20182;-78
2021/06/08 03:07:07;;;;;;;;;;;28.10;97.30;;;;;;1817269;79;20203;-79
2021/06/08 03:09:40;;;;;;;;;;;28.10;96.80;;;;;;1858491;76;20138;-79
2021/06/08 03:12:24;;;;;;;;;;;28.20;96.60;;;;;;1851998;77;20409;-78
2021/06/08 03:14:44;;;;;;;;;;;28.20;96.40;;;;;;1853351;76;20123;-79
2021/06/08 03:17:14;;;;;;;;;;;28.20;96.30;;;;;;1854694;77;20139;-77
2021/06/08 03:19:45;;;;;;;;;;;28.20;96.00;;;;;;1849846;76;20601;-78
2021/06/08 03:22:17;;;;;;;;;;;28.30;95.80;;;;;;1854384;76;20272;-77
2021/06/08 03:24:48;;;;;;;;;;;28.20;95.90;;;;;;1850232;77;20491;-77
2021/06/08 03:27:19;;;;;;;;;;;28.30;95.90;;;;;;1860883;76;20191;-76
2021/06/08 03:29:50;;;;;;;;;;;28.30;96.10;;;;;;1852588;76;20483;-78
2021/06/08 03:32:20;;;;;;;;;;;28.30;95.20;;;;;;1862858;77;20179;-78
2021/06/08 03:34:50;;;;;;;;;;;28.40;95.40;;;;;;1856178;76;20237;-78
2021/06/08 03:37:21;;;;;;;;;;;28.40;96.00;;;;;;1861260;76;20200;-78
2021/06/08 03:39:52;;;;;;;;;;;28.40;95.60;;;;;;1856852;76;20293;-78
2021/06/08 03:42:22;;;;;;;;;;;28.40;95.70;;;;;;1830988;77;20492;-77
2021/06/08 03:44:52;;;;;;;;;;;28.40;95.90;;;;;;1850991;76;20194;-78
2021/06/08 03:47:25;;;;;;;;;;;28.40;95.90;;;;;;1862107;76;20452;-79
2021/06/08 03:49:55;;;;;;;;;;;28.40;95.20;;;;;;1869287;76;20216;-78
2021/06/08 03:52:26;;;;;;;;;;;28.50;95.60;;;;;;1860998;76;20252;-78
2021/06/08 03:54:56;;;;;;;;;;;28.50;95.00;;;;;;1889041;75;20132;-77
2021/06/08 03:57:30;;;;;;;;;;;28.50;94.80;;;;;;1857389;77;20206;-80
2021/06/08 04:00:00;;;;;;;;;;;28.50;95.50;;;;;;1866531;76;20122;-78
2021/06/08 04:02:30;;;;;;;;;;;28.60;95.30;;;;;;1861252;77;20130;-79
2021/06/08 04:05:00;;;;;;;;;;;28.60;94.80;;;;;;1891299;76;20260;-78
2021/06/08 04:07:30;;;;;;;;;;;28.70;94.50;;;;;;1891304;76;20198;-78
2021/06/08 04:10:00;;;;;;;;;;;28.70;94.50;;;;;;1881085;76;20500;-77
2021/06/08 04:12:30;;;;;;;;;;;28.70;94.20;;;;;;1856600;77;20239;-77
2021/06/08 04:15:01;;;;;;;;;;;28.70;94.10;;;;;;1897893;75;20192;-76
2021/06/08 04:17:32;;;;;;;;;;;28.80;94.10;;;;;;1910376;75;20218;-76
2021/06/08 04:20:10;;;;;;;;;;;28.80;94.10;;;;;;1892860;75;20482;-76
2021/06/08 04:22:49;;;;;;;;;;;28.90;93.80;;;;;;1882704;75;20208;-78
2021/06/08 04:25:22;;;;;;;;;;;28.90;93.40;;;;;;1820186;77;20564;-77
2021/06/08 04:27:52;;;;;;;;;;;28.90;93.20;;;;;;1831309;77;20528;-77
2021/06/08 04:30:30;;;;;;;;;;;28.90;93.40;;;;;;1890936;75;20228;-76
2021/06/08 04:32:56;;;;;;;;;;;28.90;93.10;;;;;;1875088;75;20244;-76
2021/06/08 04:35:36;;;;;;;;;;;29.00;93.10;;;;;;1869334;75;20224;-76
2021/06/08 04:38:07;;;;;;;;;;;29.00;93.20;;;;;;1904764;74;20165;-76
2021/06/08 04:40:40;;;;;;;;;;;29.10;93.10;;;;;;1878222;75;20192;-76
2021/06/08 04:43:21;;;;;;;;;;;29.10;93.00;;;;;;1884903;75;20170;-76
2021/06/08 04:45:51;;;;;;;;;;;29.10;93.10;;;;;;1871795;75;20192;-77
2021/06/08 04:48:23;;;;;;;;;;;29.10;93.00;;;;;;1875111;75;20181;-76
2021/06/08 04:50:54;;;;;;;;;;;29.10;92.60;;;;;;1875421;75;20134;-77
2021/06/08 04:53:24;;;;;;;;;;;29.10;92.50;;;;;;1889700;75;20354;-75
2021/06/08 04:55:55;;;;;;;;;;;29.10;93.10;;;;;;1817241;77;20271;-76
2021/06/08 04:58:28;;;;;;;;;;;29.10;93.00;;;;;;1801625;78;20174;-76
2021/06/08 05:00:59;;;;;;;;;;;29.10;92.90;;;;;;1796540;79;20315;-77
2021/06/08 05:03:31;;;;;;;;;;;29.10;92.50;;;;;;1800577;78;20314;-75
2021/06/08 05:06:05;;;;;;;;;;;29.10;92.70;;;;;;1805024;78;20171;-77
2021/06/08 05:11:46;;;;;;;;;;;29.10;92.80;;;;;;1856303;76;20472;-79
2021/06/08 05:14:16;;;;;;;;;;;29.10;92.60;;;;;;1860762;76;20612;-79
2021/06/08 05:16:47;;;;;;;;;;;29.10;92.70;;;;;;1864857;76;20251;-78
2021/06/08 05:19:18;;;;;;;;;;;29.10;92.50;;;;;;1863220;76;20160;-78
2021/06/08 05:21:48;;;;;;;;;;;29.10;92.30;;;;;;1853383;77;20177;-78
2021/06/08 05:24:18;;;;;;;;;;;29.10;92.50;;;;;;1823759;79;20232;-78
2021/06/08 05:26:50;;;;;;;;;;;29.10;92.40;;;;;;1858217;76;20164;-77
2021/06/08 05:29:21;;;;;;;;;;;29.10;92.80;;;;;;1825196;77;20283;-77
2021/06/08 05:31:51;;;;;;;;;;;29.10;92.70;;;;;;1840251;77;20192;-75
2021/06/08 05:34:21;;;;;;;;;;;29.10;92.80;;;;;;1861803;76;20255;-76
2021/06/08 05:36:51;;;;;;;;;;;29.10;92.70;;;;;;1841751;77;20184;-75
2021/06/08 05:39:21;;;;;;;;;;;29.20;92.80;;;;;;1862356;77;20187;-74
2021/06/08 05:41:51;;;;;;;;;;;29.30;92.80;;;;;;1858826;76;20439;-77
2021/06/08 05:44:21;;;;;;;;;;;29.40;92.30;;;;;;1864026;76;20135;-76
2021/06/08 05:47:01;;;;;;;;;;;29.40;92.00;;;;;;1860464;76;20210;-75
2021/06/08 05:49:25;;;;;;;;;;;29.50;91.80;;;;;;1818233;77;20129;-75
2021/06/08 05:51:58;;;;;;;;;;;29.60;91.70;;;;;;1810363;77;20184;-76
2021/06/08 05:54:28;;;;;;;;;;;29.60;91.60;;;;;;1804816;79;20287;-76
2021/06/08 05:57:00;;;;;;;;;;;29.60;91.50;;;;;;1839699;77;20473;-76
2021/06/08 05:59:30;;;;;;;;;;;29.70;91.60;;;;;;1829423;77;20483;-77
2021/06/08 06:01:59;;;;;;;;;;;29.70;91.70;;;;;;1842128;77;20156;-77
2021/06/08 06:04:29;;;;;;;;;;;29.80;90.90;;;;;;1877448;75;20145;-77
2021/06/08 06:06:59;;;;;;;;;;;29.80;91.10;;;;;;1875427;75;20255;-76
2021/06/08 06:09:29;;;;;;;;;;;29.80;90.70;;;;;;1885611;75;20147;-76
2021/06/08 06:11:59;;;;;;;;;;;29.80;90.90;;;;;;1882464;75;20467;-76
2021/06/08 06:14:30;;;;;;;;;;;29.90;90.60;;;;;;1884763;75;20200;-78
2021/06/08 06:17:01;;;;;;;;;;;29.90;90.50;;;;;;1869262;75;20204;-77
2021/06/08 06:19:31;;;;;;;;;;;30.10;90.30;;;;;;1854245;76;20220;-78
2021/06/08 06:22:01;;;;;;;;;;;30.20;90.70;;;;;;1860559;76;20473;-78
2021/06/08 06:24:33;;;;;;;;;;;30.30;90.10;;;;;;1851780;76;20451;-77
2021/06/08 06:27:02;;;;;;;;;;;30.40;88.90;;;;;;1851161;76;20256;-76
2021/06/08 06:29:32;;;;;;;;;;;30.50;88.90;;;;;;1830229;77;20237;-77
2021/06/08 06:32:01;;;;;;;;;;;30.50;89.10;;;;;;1869240;75;20160;-78
2021/06/08 06:34:31;;;;;;;;;;;30.60;88.00;;;;;;1866998;76;20217;-77
2021/06/08 06:37:02;;;;;;;;;;;30.60;89.10;;;;;;1867646;77;20396;-77
2021/06/08 06:39:33;;;;;;;;;;;30.60;88.70;;;;;;1878607;75;20235;-77
2021/06/08 06:42:03;;;;;;;;;;;30.60;87.40;;;;;;1870834;75;20216;-78
2021/06/08 06:44:33;;;;;;;;;;;30.60;86.10;;;;;;1828975;77;20225;-78
2021/06/08 06:47:03;;;;;;;;;;;30.60;87.00;;;;;;1832161;77;20206;-77
2021/06/08 06:49:33;;;;;;;;;;;30.60;86.30;;;;;;1839691;77;20219;-77
2021/06/08 06:52:04;;;;;;;;;;;30.60;86.70;;;;;;1858682;76;20195;-77
2021/06/08 06:54:35;;;;;;;;;;;30.50;87.20;;;;;;1854744;76;20217;-75
2021/06/08 06:57:05;;;;;;;;;;;30.60;87.30;;;;;;1819530;77;20199;-77
2021/06/08 06:59:35;;;;;;;;;;;30.60;87.40;;;;;;1789410;78;20295;-77
2021/06/08 07:02:06;;;;;;;;;;;30.70;87.60;;;;;;1817671;77;20239;-77
2021/06/08 07:04:36;;;;;;;;;;;30.80;87.20;;;;;;1823777;78;20189;-78
2021/06/08 07:07:06;;;;;;;;;;;30.80;85.80;;;;;;1884484;75;20252;-77
2021/06/08 07:09:36;;;;;;;;;;;30.80;87.00;;;;;;1888671;75;20224;-77
2021/06/08 07:12:06;;;;;;;;;;;30.80;86.80;;;;;;1882360;75;20186;-77
2021/06/08 07:14:36;;;;;;;;;;;30.70;85.30;;;;;;1885603;75;20221;-77
2021/06/08 07:17:06;;;;;;;;;;;30.70;85.80;;;;;;1886189;74;20236;-77
2021/06/08 07:19:36;;;;;;;;;;;30.70;86.50;;;;;;1886145;74;20156;-79
2021/06/08 07:22:06;;;;;;;;;;;30.70;86.50;;;;;;1882620;74;20217;-79
2021/06/08 07:24:38;;;;;;;;;;;30.70;85.10;;;;;;1883707;75;20167;-78
2021/06/08 07:27:11;;;;;;;;;;;30.60;85.60;;;;;;1881476;74;20239;-77
2021/06/08 07:29:39;;;;;;;;;;;30.60;87.20;;;;;;1880875;74;20180;-76
2021/06/08 07:32:10;;;;;;;;;;;30.60;87.90;;;;;;1845210;76;20194;-77
2021/06/08 07:34:41;;;;;;;;;;;30.60;86.70;;;;;;1836189;77;20213;-78
2021/06/08 07:37:12;;;;;;;;;;;30.60;86.30;;;;;;1840043;77;20236;-77
2021/06/08 07:39:46;;;;;;;;;;;30.50;86.40;;;;;;1820832;78;20128;-78
2021/06/08 07:42:15;;;;;;;;;;;30.60;87.00;;;;;;1857782;76;20184;-76
2021/06/08 07:44:46;;;;;;;;;;;30.50;87.00;;;;;;1884405;75;20394;-75
2021/06/08 07:47:17;;;;;;;;;;;30.60;87.00;;;;;;1876242;76;20437;-75
2021/06/08 07:49:49;;;;;;;;;;;30.60;86.80;;;;;;1874780;76;20181;-75
2021/06/08 07:52:20;;;;;;;;;;;30.60;86.70;;;;;;1878999;75;20193;-75
2021/06/08 07:54:50;;;;;;;;;;;30.60;85.80;;;;;;1878041;75;20155;-74
2021/06/08 07:57:21;;;;;;;;;;;30.60;84.90;;;;;;1876380;74;20242;-75
2021/06/08 07:59:52;;;;;;;;;;;30.70;85.20;;;;;;1820801;78;20453;-75
2021/06/08 08:02:24;;;;;;;;;;;30.70;85.80;;;;;;1822879;77;20240;-76
2021/06/08 08:05:02;;;;;;;;;;;30.70;85.00;;;;;;1812837;77;20135;-76
2021/06/08 08:07:29;;;;;;;;;;;30.70;86.20;;;;;;1818033;79;20170;-77
2021/06/08 08:10:00;;;;;;;;;;;30.70;85.80;;;;;;1821836;78;20539;-76
2021/06/08 08:12:30;;;;;;;;;;;30.80;85.40;;;;;;1819802;78;20203;-75
2021/06/08 08:15:01;;;;;;;;;;;30.80;85.80;;;;;;1818916;78;20237;-75
2021/06/08 08:17:32;;;;;;;;;;;30.80;86.00;;;;;;1817138;77;20221;-76
2021/06/08 08:20:03;;;;;;;;;;;30.80;85.80;;;;;;1849498;77;20206;-76
2021/06/08 08:22:33;;;;;;;;;;;30.80;85.00;;;;;;1847892;76;20244;-75
2021/06/08 08:25:04;;;;;;;;;;;30.80;86.10;;;;;;1878454;76;20160;-76
2021/06/08 08:27:34;;;;;;;;;;;30.80;86.30;;;;;;1869456;76;20176;-76
2021/06/08 08:30:04;;;;;;;;;;;30.80;85.00;;;;;;1886359;76;20206;-76
2021/06/08 08:32:34;;;;;;;;;;;30.80;84.80;;;;;;1883134;76;20203;-75
2021/06/08 08:35:04;;;;;;;;;;;30.70;84.80;;;;;;1862420;76;20172;-75
2021/06/08 08:37:34;;;;;;;;;;;30.70;85.50;;;;;;1866934;76;20167;-76
2021/06/08 08:40:04;;;;;;;;;;;30.80;85.70;;;;;;1880003;76;20221;-75
2021/06/08 08:42:34;;;;;;;;;;;30.70;85.60;;;;;;1833931;78;20225;-76
2021/06/08 08:45:04;;;;;;;;;;;30.70;85.60;;;;;;1849234;76;20244;-75
2021/06/08 08:47:35;;;;;;;;;;;30.80;86.40;;;;;;1851441;76;20131;-75
2021/06/08 08:50:06;;;;;;;;;;;30.70;86.70;;;;;;1848711;77;20130;-76
2021/06/08 08:52:36;;;;;;;;;;;30.80;86.00;;;;;;1814660;78;20192;-75
2021/06/08 08:55:06;;;;;;;;;;;30.80;84.70;;;;;;1824251;78;20180;-76
2021/06/08 08:57:36;;;;;;;;;;;30.80;85.00;;;;;;1834955;77;20473;-75
2021/06/08 09:00:07;;;;;;;;;;;30.70;85.50;;;;;;1832245;77;20229;-75
2021/06/08 09:02:38;;;;;;;;;;;30.70;86.80;;;;;;1900344;74;20206;-76
2021/06/08 09:05:09;;;;;;;;;;;30.60;85.90;;;;;;1904258;75;20530;-75
2021/06/08 09:07:39;;;;;;;;;;;30.60;85.80;;;;;;1904893;75;20549;-76
2021/06/08 09:10:11;;;;;;;;;;;30.60;84.90;;;;;;1904539;74;20194;-76
2021/06/08 09:12:41;;;;;;;;;;;30.70;85.30;;;;;;1901083;75;20509;-76
2021/06/08 09:15:12;;;;;;;;;;;30.70;84.90;;;;;;1903959;74;20265;-75
2021/06/08 09:17:42;;;;;;;;;;;30.70;86.10;;;;;;1899128;74;20202;-76
2021/06/08 09:20:13;;;;;;;;;;;30.80;85.80;;;;;;1903154;75;20255;-75
2021/06/08 09:22:44;;;;;;;;;;;30.80;85.10;;;;;;1904136;75;20248;-76
2021/06/08 09:25:16;;;;;;;;;;;30.80;87.40;;;;;;1904173;75;20229;-76
2021/06/08 09:27:46;;;;;;;;;;;30.80;85.20;;;;;;1921463;74;20178;-75
2021/06/08 09:30:16;;;;;;;;;;;30.80;85.70;;;;;;1899986;74;20469;-76
2021/06/08 09:32:45;;;;;;;;;;;30.80;85.50;;;;;;1887681;75;20202;-77
2021/06/08 09:35:16;;;;;;;;;;;30.80;84.80;;;;;;1903283;75;20139;-76
2021/06/08 09:37:46;;;;;;;;;;;30.80;84.50;;;;;;1903854;75;20265;-77
2021/06/08 09:40:17;;;;;;;;;;;30.80;84.00;;;;;;1903034;74;20218;-77
2021/06/08 09:42:48;;;;;;;;;;;30.80;83.30;;;;;;1904358;74;20194;-78
2021/06/08 09:45:22;;;;;;;;;;;30.80;84.00;;;;;;1903897;74;20241;-78
2021/06/08 09:47:52;;;;;;;;;;;30.80;84.20;;;;;;1902179;75;20347;-77
2021/06/08 09:50:24;;;;;;;;;;;30.80;83.90;;;;;;1902301;74;20251;-79
2021/06/08 09:52:55;;;;;;;;;;;30.80;85.20;;;;;;1901895;75;20494;-77
2021/06/08 09:55:25;;;;;;;;;;;30.80;84.70;;;;;;1899203;74;20255;-77
2021/06/08 09:57:55;;;;;;;;;;;30.80;84.30;;;;;;1898447;75;20169;-76
2021/06/08 10:00:24;;;;;;;;;;;30.80;83.60;;;;;;1896061;74;20258;-77
2021/06/08 10:02:55;;;;;;;;;;;30.80;83.70;;;;;;1891838;74;20671;-76
2021/06/08 10:05:29;;;;;;;;;;;30.80;83.40;;;;;;1897122;76;20126;-77
2021/06/08 10:07:59;;;;;;;;;;;30.80;83.60;;;;;;1895660;76;20130;-76
2021/06/08 10:10:30;;;;;;;;;;;30.80;83.70;;;;;;1897923;75;20204;-76
2021/06/08 10:13:01;;;;;;;;;;;30.80;83.90;;;;;;1897146;76;20175;-75
2021/06/08 10:15:33;;;;;;;;;;;30.80;84.40;;;;;;1907234;74;20215;-77
2021/06/08 10:18:04;;;;;;;;;;;30.80;84.50;;;;;;1892321;74;20126;-77
2021/06/08 10:20:36;;;;;;;;;;;30.80;85.00;;;;;;1931005;74;20207;-78
2021/06/08 10:23:06;;;;;;;;;;;30.80;85.10;;;;;;1897143;76;20320;-77
2021/06/08 10:25:36;;;;;;;;;;;30.80;85.40;;;;;;1895408;74;20169;-78
2021/06/08 10:28:06;;;;;;;;;;;30.80;85.70;;;;;;1890256;74;20200;-77
2021/06/08 10:30:36;;;;;;;;;;;30.80;85.50;;;;;;1896520;75;20184;-78
2021/06/08 10:33:07;;;;;;;;;;;30.70;85.10;;;;;;1896412;76;20205;-78
2021/06/08 10:35:39;;;;;;;;;;;30.70;86.90;;;;;;1897028;74;20230;-78
2021/06/08 10:38:10;;;;;;;;;;;30.60;86.30;;;;;;1899733;74;20472;-77
2021/06/08 10:40:41;;;;;;;;;;;30.70;86.20;;;;;;1931815;74;20205;-78
2021/06/08 10:43:13;;;;;;;;;;;30.70;86.10;;;;;;1900996;74;20503;-78
2021/06/08 10:45:43;;;;;;;;;;;30.60;86.10;;;;;;1898179;74;20612;-78
2021/06/08 10:48:19;;;;;;;;;;;30.60;86.20;;;;;;1897710;76;20568;-77
2021/06/08 10:50:48;;;;;;;;;;;30.60;87.10;;;;;;1903677;74;20196;-77
2021/06/08 10:53:19;;;;;;;;;;;30.50;87.20;;;;;;1912787;74;20157;-77
2021/06/08 10:55:49;;;;;;;;;;;30.50;87.60;;;;;;1893864;76;20508;-77
2021/06/08 10:58:20;;;;;;;;;;;30.50;87.60;;;;;;1894951;74;20212;-77
2021/06/08 11:00:52;;;;;;;;;;;30.50;87.30;;;;;;1892330;75;20165;-78
2021/06/08 11:03:22;;;;;;;;;;;30.50;87.40;;;;;;1916514;74;20222;-77
2021/06/08 11:05:58;;;;;;;;;;;30.50;87.60;;;;;;1895700;76;20456;-77
2021/06/08 11:08:26;;;;;;;;;;;30.40;87.10;;;;;;1898106;75;20253;-77
2021/06/08 11:10:57;;;;;;;;;;;30.40;87.70;;;;;;1892606;74;20653;-77
2021/06/08 11:13:29;;;;;;;;;;;30.40;87.40;;;;;;1887735;75;20216;-77
2021/06/08 11:16:01;;;;;;;;;;;30.40;87.20;;;;;;1890277;74;20190;-77
2021/06/08 11:18:32;;;;;;;;;;;30.30;88.00;;;;;;1886245;75;20219;-77
2021/06/08 11:21:03;;;;;;;;;;;30.30;88.50;;;;;;1882017;75;20187;-77
2021/06/08 11:23:34;;;;;;;;;;;30.30;88.40;;;;;;1892422;75;20245;-78
2021/06/08 11:26:04;;;;;;;;;;;30.30;89.00;;;;;;1888318;74;20356;-78
2021/06/08 11:28:35;;;;;;;;;;;30.30;89.50;;;;;;1897628;75;20269;-77
2021/06/08 11:31:05;;;;;;;;;;;30.30;88.90;;;;;;1895804;76;20181;-78
2021/06/08 11:33:36;;;;;;;;;;;30.20;88.60;;;;;;1897636;76;20177;-77
2021/06/08 11:36:07;;;;;;;;;;;30.20;89.40;;;;;;1898198;76;20126;-77
2021/06/08 11:38:38;;;;;;;;;;;30.10;89.60;;;;;;1895589;76;20226;-77
2021/06/08 11:41:09;;;;;;;;;;;30.10;90.00;;;;;;1898111;74;20187;-77
2021/06/08 11:43:40;;;;;;;;;;;30.00;90.10;;;;;;1900254;75;20240;-77
2021/06/08 11:46:12;;;;;;;;;;;30.00;90.30;;;;;;1903134;74;20233;-78
2021/06/08 11:48:44;;;;;;;;;;;29.90;90.30;;;;;;1901969;74;20189;-78
2021/06/08 11:51:15;;;;;;;;;;;29.80;90.40;;;;;;1897660;76;20393;-77
2021/06/08 11:53:46;;;;;;;;;;;29.80;90.40;;;;;;1891281;75;20201;-78
2021/06/08 11:56:17;;;;;;;;;;;29.40;91.20;;;;;;1896800;74;20245;-78
2021/06/08 11:58:47;;;;;;;;;;;29.00;92.20;;;;;;1898353;74;20147;-78
2021/06/08 12:01:18;;;;;;;;;;;28.60;93.40;;;;;;1900216;74;20222;-77
2021/06/08 12:03:49;;;;;;;;;;;28.30;94.40;;;;;;1849334;77;20170;-78
2021/06/08 12:06:20;;;;;;;;;;;27.90;95.60;;;;;;1823576;77;20176;-78
2021/06/08 12:08:52;;;;;;;;;;;27.60;96.90;;;;;;1836284;77;20201;-78
2021/06/08 12:11:21;;;;;;;;;;;27.40;97.60;;;;;;1850730;77;20192;-78
2021/06/08 12:13:52;;;;;;;;;;;27.10;97.80;;;;;;1850617;77;20186;-78
2021/06/08 12:16:21;;;;;;;;;;;26.80;98.40;;;;;;1841582;76;20239;-78
2021/06/08 12:18:53;;;;;;;;;;;26.60;98.70;;;;;;1838634;77;20229;-77
2021/06/08 12:21:23;;;;;;;;;;;26.50;99.10;;;;;;1848712;77;20316;-77
2021/06/08 12:23:56;;;;;;;;;;;26.30;99.30;;;;;;1844995;77;20186;-77
2021/06/08 12:26:26;;;;;;;;;;;26.20;99.80;;;;;;1841350;76;20174;-77
2021/06/08 12:28:56;;;;;;;;;;;26.10;99.60;;;;;;1824867;77;20407;-77
2021/06/08 12:31:27;;;;;;;;;;;26.00;99.90;;;;;;1879800;76;20206;-77
2021/06/08 12:33:57;;;;;;;;;;;26.00;99.90;;;;;;1850136;77;20214;-77
2021/06/08 12:39:18;;;;;;;;;;;25.90;99.90;;;;;;1696414;84;20187;-77
2021/06/08 12:41:49;;;;;;;;;;;25.90;99.90;;;;;;1720481;82;20616;-75
2021/06/08 12:44:20;;;;;;;;;;;25.80;99.90;;;;;;1721741;81;20229;-76
2021/06/08 12:46:51;;;;;;;;;;;25.90;99.90;;;;;;1728732;80;20243;-78
2021/06/08 12:49:22;;;;;;;;;;;25.90;99.90;;;;;;1751367;81;20208;-78
2021/06/08 12:51:53;;;;;;;;;;;26.00;99.90;;;;;;1720634;81;20204;-79
2021/06/08 12:54:24;;;;;;;;;;;26.00;99.90;;;;;;1748735;80;20276;-78
2021/06/08 12:56:54;;;;;;;;;;;26.10;99.90;;;;;;1750633;81;20282;-77
2021/06/08 12:59:25;;;;;;;;;;;26.20;99.90;;;;;;1739843;81;20671;-78
2021/06/08 13:01:55;;;;;;;;;;;26.30;99.90;;;;;;1754753;81;20244;-77
2021/06/08 13:04:27;;;;;;;;;;;26.40;99.90;;;;;;1784494;78;20237;-77
2021/06/08 13:06:58;;;;;;;;;;;26.50;99.90;;;;;;1786981;80;20221;-76
2021/06/08 13:09:28;;;;;;;;;;;26.60;99.90;;;;;;1797349;78;20225;-79
2021/06/08 13:11:59;;;;;;;;;;;26.70;99.30;;;;;;1780974;81;20198;-76
2021/06/08 13:14:30;;;;;;;;;;;26.80;99.30;;;;;;1783699;80;20725;-75
2021/06/08 13:17:00;;;;;;;;;;;26.80;99.40;;;;;;1770322;81;20249;-76
2021/06/08 13:19:31;;;;;;;;;;;26.80;99.60;;;;;;1744054;82;20250;-76
2021/06/08 13:22:05;;;;;;;;;;;26.80;99.70;;;;;;1718969;81;20428;-76
2021/06/08 13:24:36;;;;;;;;;;;26.80;99.80;;;;;;1731381;82;20226;-76
2021/06/08 13:27:07;;;;;;;;;;;26.80;99.90;;;;;;1789437;78;20147;-76
2021/06/08 13:29:37;;;;;;;;;;;26.80;99.90;;;;;;1775783;81;20214;-75
2021/06/08 13:32:07;;;;;;;;;;;26.80;99.90;;;;;;1776667;81;20210;-76
2021/06/08 13:34:37;;;;;;;;;;;26.80;99.90;;;;;;1778762;81;20214;-76
2021/06/08 13:37:08;;;;;;;;;;;26.80;99.90;;;;;;1777547;79;20234;-76
2021/06/08 13:39:40;;;;;;;;;;;26.70;99.90;;;;;;1838418;76;20160;-76
2021/06/08 13:42:14;;;;;;;;;;;26.70;99.90;;;;;;1836398;77;20516;-78
2021/06/08 13:44:45;;;;;;;;;;;26.70;99.90;;;;;;1839651;77;20218;-77
2021/06/08 13:47:15;;;;;;;;;;;26.70;99.90;;;;;;1831045;77;20129;-76
2021/06/08 13:49:51;;;;;;;;;;;26.60;99.90;;;;;;1831998;77;20180;-76
2021/06/08 13:52:18;;;;;;;;;;;26.60;99.90;;;;;;1833728;77;20594;-74
2021/06/08 13:54:48;;;;;;;;;;;26.60;99.90;;;;;;1834774;77;20263;-78
2021/06/08 13:57:20;;;;;;;;;;;26.60;99.90;;;;;;1832677;77;20379;-76
2021/06/08 14:02:41;;;;;;;;;;;26.60;99.90;;;;;;1862368;76;20135;-76
2021/06/08 14:05:11;;;;;;;;;;;26.60;99.90;;;;;;1858750;75;20257;-74
2021/06/08 14:07:42;;;;;;;;;;;26.60;99.90;;;;;;1843738;77;20209;-75
2021/06/08 14:10:12;;;;;;;;;;;26.60;99.90;;;;;;1850726;77;20189;-76
2021/06/08 14:12:43;;;;;;;;;;;26.60;99.90;;;;;;1849740;77;20487;-76
2021/06/08 14:15:14;;;;;;;;;;;26.60;99.90;;;;;;1845462;77;20162;-76
2021/06/08 14:17:47;;;;;;;;;;;26.60;99.90;;;;;;1847377;77;20657;-76
2021/06/08 14:20:18;;;;;;;;;;;26.60;99.90;;;;;;1842565;77;20200;-87
2021/06/08 14:22:49;;;;;;;;;;;26.70;99.90;;;;;;1844121;76;20174;-88
2021/06/08 14:25:20;;;;;;;;;;;26.60;99.90;;;;;;1847109;77;20134;-89
2021/06/08 14:27:49;;;;;;;;;;;26.50;99.90;;;;;;1862239;76;20185;-90
2021/06/08 14:30:19;;;;;;;;;;;26.50;99.90;;;;;;1847128;77;20586;-89
2021/06/08 14:32:49;;;;;;;;;;;26.40;99.90;;;;;;1852492;77;20127;-91
2021/06/08 14:35:20;;;;;;;;;;;26.30;99.90;;;;;;1862999;75;20134;-91
2021/06/08 14:37:50;;;;;;;;;;;26.30;99.90;;;;;;1863122;75;20221;-91
2021/06/08 14:40:20;;;;;;;;;;;26.40;99.90;;;;;;1860688;76;20241;-87
2021/06/08 14:42:57;;;;;;;;;;;26.40;99.90;;;;;;1789717;78;20269;-88
2021/06/08 14:45:32;;;;;;;;;;;26.40;99.90;;;;;;1847502;76;20228;-90